sensor_id;sensor_type;location;lat;lon;timestamp;pressure;altitude;pressure_sealevel;temperature;humidity
32237;BME280;18726;44.732;10.550;2023-05-19T00:02:05;101278.00;;;17.68;100.00
32237;BME280;18726;44.732;10.550;2023-05-19T00:05:11;101272.91;;;17.70;100.00
32237;BME280;18726;44.732;10.550;2023-05-19T00:08:17;101274.50;;;17.71;100.00
32237;BME280;18726;44.732;10.550;2023-05-19T00:11:21;101272.81;;;17.63;100.00
32237;BME280;18726;44.732;10.550;2023-05-19T00:14:26;101279.00;;;17.49;100.00
32237;BME280;18726;44.732;10.550;2023-05-19T00:17:31;101272.69;;;17.48;100.00
32237;BME280;18726;44.732;10.550;2023-05-19T00:20:36;101274.34;;;17.57;100.00
32237;BME280;18726;44.732;10.550;2023-05-19T00:23:40;101274.34;;;17.57;100.00
32237;BME280;18726;44.732;10.550;2023-05-19T00:26:45;101269.69;;;17.61;100.00
32237;BME280;18726;44.732;10.550;2023-05-19T00:29:48;101260.19;;;17.54;100.00
32237;BME280;18726;44.732;10.550;2023-05-19T00:32:52;101258.69;;;17.61;100.00
32237;BME280;18726;44.732;10.550;2023-05-19T00:35:56;101263.41;;;17.64;100.00
32237;BME280;18726;44.732;10.550;2023-05-19T00:38:59;101259.50;;;17.65;100.00
32237;BME280;18726;44.732;10.550;2023-05-19T00:42:03;101263.47;;;17.67;100.00
32237;BME280;18726;44.732;10.550;2023-05-19T00:45:08;101259.16;;;17.70;100.00
32237;BME280;18726;44.732;10.550;2023-05-19T00:48:12;101257.34;;;17.84;100.00
32237;BME280;18726;44.732;10.550;2023-05-19T00:51:16;101254.22;;;17.86;100.00
32237;BME280;18726;44.732;10.550;2023-05-19T00:54:20;101255.47;;;17.99;100.00
32237;BME280;18726;44.732;10.550;2023-05-19T00:57:24;101262.16;;;18.02;100.00
32237;BME280;18726;44.732;10.550;2023-05-19T01:00:29;101262.84;;;17.92;100.00
32237;BME280;18726;44.732;10.550;2023-05-19T01:03:34;101261.72;;;17.96;100.00
32237;BME280;18726;44.732;10.550;2023-05-19T01:06:38;101262.16;;;18.02;100.00
32237;BME280;18726;44.732;10.550;2023-05-19T01:09:44;101270.03;;;18.03;100.00
32237;BME280;18726;44.732;10.550;2023-05-19T01:12:49;101256.06;;;17.75;100.00
32237;BME280;18726;44.732;10.550;2023-05-19T01:16:10;101264.72;;;17.36;100.00
32237;BME280;18726;44.732;10.550;2023-05-19T01:19:29;101251.88;;;17.07;100.00
32237;BME280;18726;44.732;10.550;2023-05-19T01:32:25;101253.88;;;16.73;100.00
32237;BME280;18726;44.732;10.550;2023-05-19T01:35:34;101253.25;;;16.57;100.00
32237;BME280;18726;44.732;10.550;2023-05-19T01:38:38;101254.03;;;16.57;100.00
32237;BME280;18726;44.732;10.550;2023-05-19T01:41:42;101248.41;;;16.73;100.00
32237;BME280;18726;44.732;10.550;2023-05-19T01:44:47;101246.97;;;16.86;100.00
32237;BME280;18726;44.732;10.550;2023-05-19T01:47:55;101253.50;;;16.74;100.00
32237;BME280;18726;44.732;10.550;2023-05-19T01:50:59;101243.00;;;16.83;100.00
32237;BME280;18726;44.732;10.550;2023-05-19T01:54:03;101249.34;;;16.87;100.00
32237;BME280;18726;44.732;10.550;2023-05-19T02:01:02;101242.25;;;16.86;100.00
32237;BME280;18726;44.732;10.550;2023-05-19T02:04:28;101244.88;;;16.72;100.00
32237;BME280;18726;44.732;10.550;2023-05-19T02:07:44;101247.63;;;16.76;100.00
32237;BME280;18726;44.732;10.550;2023-05-19T02:10:54;101245.94;;;16.64;100.00
32237;BME280;18726;44.732;10.550;2023-05-19T02:14:10;101243.03;;;16.53;100.00
32237;BME280;18726;44.732;10.550;2023-05-19T02:17:17;101244.56;;;16.51;100.00
32237;BME280;18726;44.732;10.550;2023-05-19T02:20:22;101238.13;;;16.66;100.00
32237;BME280;18726;44.732;10.550;2023-05-19T02:23:26;101243.69;;;16.73;100.00
32237;BME280;18726;44.732;10.550;2023-05-19T02:26:30;101240.28;;;16.83;100.00
32237;BME280;18726;44.732;10.550;2023-05-19T02:29:34;101250.09;;;16.84;100.00
32237;BME280;18726;44.732;10.550;2023-05-19T02:32:37;101249.63;;;16.79;100.00
32237;BME280;18726;44.732;10.550;2023-05-19T02:35:41;101250.47;;;16.83;100.00
32237;BME280;18726;44.732;10.550;2023-05-19T02:38:45;101250.09;;;16.84;100.00
32237;BME280;18726;44.732;10.550;2023-05-19T02:41:48;101252.53;;;16.93;100.00
32237;BME280;18726;44.732;10.550;2023-05-19T02:44:54;101251.25;;;16.83;100.00
32237;BME280;18726;44.732;10.550;2023-05-19T02:47:58;101248.41;;;16.76;100.00
32237;BME280;18726;44.732;10.550;2023-05-19T02:51:02;101255.28;;;16.63;100.00
32237;BME280;18726;44.732;10.550;2023-05-19T02:54:05;101252.25;;;16.68;100.00
32237;BME280;18726;44.732;10.550;2023-05-19T02:57:09;101254.31;;;16.78;100.00
32237;BME280;18726;44.732;10.550;2023-05-19T03:00:13;101251.34;;;16.91;100.00
32237;BME280;18726;44.732;10.550;2023-05-19T03:03:18;101256.97;;;17.05;100.00
32237;BME280;18726;44.732;10.550;2023-05-19T03:06:21;101249.63;;;17.16;100.00
32237;BME280;18726;44.732;10.550;2023-05-19T03:09:26;101251.25;;;17.20;100.00
32237;BME280;18726;44.732;10.550;2023-05-19T03:12:29;101254.44;;;17.26;100.00
32237;BME280;18726;44.732;10.550;2023-05-19T03:15:35;101259.94;;;17.26;100.00
32237;BME280;18726;44.732;10.550;2023-05-19T03:18:39;101255.25;;;17.27;100.00
32237;BME280;18726;44.732;10.550;2023-05-19T03:21:43;101252.84;;;17.21;100.00
32237;BME280;18726;44.732;10.550;2023-05-19T03:24:47;101251.66;;;17.23;100.00
32237;BME280;18726;44.732;10.550;2023-05-19T03:27:53;101266.09;;;17.16;100.00
32237;BME280;18726;44.732;10.550;2023-05-19T03:30:56;101273.19;;;17.17;100.00
32237;BME280;18726;44.732;10.550;2023-05-19T03:34:04;101270.75;;;17.12;100.00
32237;BME280;18726;44.732;10.550;2023-05-19T03:37:08;101275.06;;;17.09;100.00
32237;BME280;18726;44.732;10.550;2023-05-19T03:40:14;101275.28;;;16.94;100.00
32237;BME280;18726;44.732;10.550;2023-05-19T03:43:20;101274.38;;;16.26;100.00
32237;BME280;18726;44.732;10.550;2023-05-19T03:46:29;101277.31;;;16.10;100.00
32237;BME280;18726;44.732;10.550;2023-05-19T03:49:51;101279.31;;;16.13;100.00
32237;BME280;18726;44.732;10.550;2023-05-19T03:53:16;101273.13;;;16.20;100.00
32237;BME280;18726;44.732;10.550;2023-05-19T03:56:20;101270.97;;;16.33;100.00
32237;BME280;18726;44.732;10.550;2023-05-19T03:59:26;101284.53;;;16.52;100.00
32237;BME280;18726;44.732;10.550;2023-05-19T04:02:30;101281.94;;;16.63;100.00
32237;BME280;18726;44.732;10.550;2023-05-19T04:05:34;101285.47;;;16.63;100.00
32237;BME280;18726;44.732;10.550;2023-05-19T04:08:38;101287.50;;;16.66;100.00
32237;BME280;18726;44.732;10.550;2023-05-19T04:11:42;101284.06;;;16.76;100.00
32237;BME280;18726;44.732;10.550;2023-05-19T04:14:45;101294.72;;;16.81;100.00
32237;BME280;18726;44.732;10.550;2023-05-19T04:17:49;101294.00;;;16.84;100.00
32237;BME280;18726;44.732;10.550;2023-05-19T04:20:53;101302.59;;;16.83;100.00
32237;BME280;18726;44.732;10.550;2023-05-19T04:23:57;101300.31;;;16.88;100.00
32237;BME280;18726;44.732;10.550;2023-05-19T04:27:04;101300.41;;;16.96;100.00
32237;BME280;18726;44.732;10.550;2023-05-19T04:30:08;101305.97;;;17.03;100.00
32237;BME280;18726;44.732;10.550;2023-05-19T04:33:12;101306.88;;;17.14;100.00
32237;BME280;18726;44.732;10.550;2023-05-19T04:36:16;101310.03;;;17.16;100.00
32237;BME280;18726;44.732;10.550;2023-05-19T04:39:24;101315.53;;;17.16;100.00
32237;BME280;18726;44.732;10.550;2023-05-19T04:42:28;101315.69;;;17.30;100.00
32237;BME280;18726;44.732;10.550;2023-05-19T04:45:34;101313.75;;;17.34;100.00
32237;BME280;18726;44.732;10.550;2023-05-19T04:48:40;101313.38;;;17.32;100.00
32237;BME280;18726;44.732;10.550;2023-05-19T04:51:45;101318.03;;;17.28;100.00
32237;BME280;18726;44.732;10.550;2023-05-19T04:54:52;101317.16;;;17.20;100.00
32237;BME280;18726;44.732;10.550;2023-05-19T04:57:56;101324.03;;;17.07;100.00
32237;BME280;18726;44.732;10.550;2023-05-19T05:01:00;101327.28;;;16.83;100.00
32237;BME280;18726;44.732;10.550;2023-05-19T05:04:05;101323.44;;;16.61;100.00
32237;BME280;18726;44.732;10.550;2023-05-19T05:07:09;101320.09;;;16.45;100.00
32237;BME280;18726;44.732;10.550;2023-05-19T05:10:14;101314.47;;;16.34;100.00
32237;BME280;18726;44.732;10.550;2023-05-19T05:13:20;101317.47;;;16.26;100.00
32237;BME280;18726;44.732;10.550;2023-05-19T05:16:25;101317.47;;;16.26;100.00
32237;BME280;18726;44.732;10.550;2023-05-19T05:19:29;101314.34;;;16.27;100.00
32237;BME280;18726;44.732;10.550;2023-05-19T05:22:33;101319.94;;;16.34;100.00
32237;BME280;18726;44.732;10.550;2023-05-19T05:25:37;101319.34;;;16.48;100.00
32237;BME280;18726;44.732;10.550;2023-05-19T05:28:41;101323.59;;;16.68;100.00
32237;BME280;18726;44.732;10.550;2023-05-19T05:31:44;101315.03;;;16.73;100.00
32237;BME280;18726;44.732;10.550;2023-05-19T05:34:49;101321.00;;;16.82;100.00
32237;BME280;18726;44.732;10.550;2023-05-19T05:37:53;101322.59;;;16.83;100.00
32237;BME280;18726;44.732;10.550;2023-05-19T05:40:57;101325.84;;;16.93;100.00
32237;BME280;18726;44.732;10.550;2023-05-19T05:44:01;101332.44;;;16.88;100.00
32237;BME280;18726;44.732;10.550;2023-05-19T05:47:07;101330.69;;;17.03;100.00
32237;BME280;18726;44.732;10.550;2023-05-19T05:54:05;101325.84;;;17.26;100.00
32237;BME280;18726;44.732;10.550;2023-05-19T05:57:13;101332.97;;;17.31;100.00
32237;BME280;18726;44.732;10.550;2023-05-19T06:00:18;101329.97;;;17.46;100.00
32237;BME280;18726;44.732;10.550;2023-05-19T06:03:28;101334.72;;;17.49;100.00
32237;BME280;18726;44.732;10.550;2023-05-19T06:06:35;101345.38;;;17.54;100.00
32237;BME280;18726;44.732;10.550;2023-05-19T06:09:41;101349.75;;;17.63;100.00
32237;BME280;18726;44.732;10.550;2023-05-19T06:12:46;101348.28;;;17.69;100.00
32237;BME280;18726;44.732;10.550;2023-05-19T06:15:51;101352.94;;;17.65;100.00
32237;BME280;18726;44.732;10.550;2023-05-19T06:19:06;101347.78;;;17.60;100.00
32237;BME280;18726;44.732;10.550;2023-05-19T06:22:10;101348.13;;;17.54;100.00
32237;BME280;18726;44.732;10.550;2023-05-19T06:25:15;101352.09;;;17.61;100.00
32237;BME280;18726;44.732;10.550;2023-05-19T06:28:19;101346.69;;;17.68;100.00
32237;BME280;18726;44.732;10.550;2023-05-19T06:31:23;101342.81;;;17.72;100.00
32237;BME280;18726;44.732;10.550;2023-05-19T06:34:31;101346.06;;;17.85;100.00
32237;BME280;18726;44.732;10.550;2023-05-19T06:37:35;101350.75;;;17.81;100.00
32237;BME280;18726;44.732;10.550;2023-05-19T06:40:40;101351.59;;;17.88;100.00
32237;BME280;18726;44.732;10.550;2023-05-19T06:43:43;101346.91;;;17.89;100.00
32237;BME280;18726;44.732;10.550;2023-05-19T06:46:50;101359.50;;;17.97;100.00
32237;BME280;18726;44.732;10.550;2023-05-19T06:49:54;101364.00;;;17.72;100.00
32237;BME280;18726;44.732;10.550;2023-05-19T06:53:01;101361.78;;;17.47;100.00
32237;BME280;18726;44.732;10.550;2023-05-19T06:56:06;101354.50;;;17.29;100.00
32237;BME280;18726;44.732;10.550;2023-05-19T06:59:11;101353.53;;;17.14;100.00
32237;BME280;18726;44.732;10.550;2023-05-19T07:02:15;101362.34;;;17.27;100.00
32237;BME280;18726;44.732;10.550;2023-05-19T07:05:19;101359.66;;;17.34;100.00
32237;BME280;18726;44.732;10.550;2023-05-19T07:08:27;101356.38;;;17.21;100.00
32237;BME280;18726;44.732;10.550;2023-05-19T07:11:31;101365.59;;;17.39;100.00
32237;BME280;18726;44.732;10.550;2023-05-19T07:14:35;101365.59;;;17.39;100.00
32237;BME280;18726;44.732;10.550;2023-05-19T07:17:41;101365.38;;;17.55;100.00
32237;BME280;18726;44.732;10.550;2023-05-19T07:20:45;101369.66;;;17.86;100.00
32237;BME280;18726;44.732;10.550;2023-05-19T07:23:48;101371.03;;;18.10;100.00
32237;BME280;18726;44.732;10.550;2023-05-19T07:26:52;101360.56;;;18.30;100.00
32237;BME280;18726;44.732;10.550;2023-05-19T07:29:56;101360.34;;;18.56;100.00
32237;BME280;18726;44.732;10.550;2023-05-19T07:32:59;101354.53;;;18.68;100.00
32237;BME280;18726;44.732;10.550;2023-05-19T07:36:03;101356.94;;;18.73;100.00
32237;BME280;18726;44.732;10.550;2023-05-19T07:39:07;101363.16;;;18.63;100.00
32237;BME280;18726;44.732;10.550;2023-05-19T07:42:11;101366.06;;;18.30;100.00
32237;BME280;18726;44.732;10.550;2023-05-19T07:45:14;101358.75;;;18.55;100.00
32237;BME280;18726;44.732;10.550;2023-05-19T07:48:18;101371.84;;;18.69;100.00
32237;BME280;18726;44.732;10.550;2023-05-19T07:51:24;101362.44;;;18.73;100.00
32237;BME280;18726;44.732;10.550;2023-05-19T07:54:28;101362.50;;;18.29;100.00
32237;BME280;18726;44.732;10.550;2023-05-19T07:57:32;101360.78;;;18.07;100.00
32237;BME280;18726;44.732;10.550;2023-05-19T08:00:35;101356.59;;;18.27;100.00
32237;BME280;18726;44.732;10.550;2023-05-19T08:03:39;101362.41;;;18.70;100.00
32237;BME280;18726;44.732;10.550;2023-05-19T08:06:43;101363.34;;;19.06;100.00
32237;BME280;18726;44.732;10.550;2023-05-19T08:09:47;101361.09;;;19.40;100.00
32237;BME280;18726;44.732;10.550;2023-05-19T08:12:50;101347.03;;;19.63;100.00
32237;BME280;18726;44.732;10.550;2023-05-19T08:15:53;101356.47;;;19.72;100.00
32237;BME280;18726;44.732;10.550;2023-05-19T08:19:01;101369.84;;;19.52;100.00
32237;BME280;18726;44.732;10.550;2023-05-19T08:22:06;101369.00;;;19.41;100.00
32237;BME280;18726;44.732;10.550;2023-05-19T08:25:11;101363.56;;;19.55;100.00
32237;BME280;18726;44.732;10.550;2023-05-19T08:28:16;101362.00;;;19.62;100.00
32237;BME280;18726;44.732;10.550;2023-05-19T08:31:20;101360.81;;;19.59;100.00
32237;BME280;18726;44.732;10.550;2023-05-19T08:34:24;101366.91;;;19.03;100.00
32237;BME280;18726;44.732;10.550;2023-05-19T08:37:28;101360.34;;;18.56;100.00
32237;BME280;18726;44.732;10.550;2023-05-19T08:40:33;101357.75;;;18.19;100.00
32237;BME280;18726;44.732;10.550;2023-05-19T08:43:39;101366.81;;;18.27;100.00
32237;BME280;18726;44.732;10.550;2023-05-19T08:46:43;101369.88;;;18.66;100.00
32237;BME280;18726;44.732;10.550;2023-05-19T08:49:51;101372.69;;;18.80;100.00
32237;BME280;18726;44.732;10.550;2023-05-19T08:53:19;101372.75;;;18.94;100.00
32237;BME280;18726;44.732;10.550;2023-05-19T08:56:25;101374.22;;;18.70;100.00
32237;BME280;18726;44.732;10.550;2023-05-19T08:59:29;101369.53;;;18.81;100.00
32237;BME280;18726;44.732;10.550;2023-05-19T09:02:34;101371.63;;;19.06;100.00
32237;BME280;18726;44.732;10.550;2023-05-19T09:05:39;101372.91;;;19.37;100.00
32237;BME280;18726;44.732;10.550;2023-05-19T09:08:43;101374.19;;;19.61;100.00
32237;BME280;18726;44.732;10.550;2023-05-19T09:11:47;101372.25;;;19.86;100.00
32237;BME280;18726;44.732;10.550;2023-05-19T09:14:51;101365.94;;;20.00;100.00
32237;BME280;18726;44.732;10.550;2023-05-19T09:18:13;101371.47;;;20.17;100.00
32237;BME280;18726;44.732;10.550;2023-05-19T09:21:17;101369.09;;;20.23;100.00
32237;BME280;18726;44.732;10.550;2023-05-19T09:24:24;101366.34;;;20.12;100.00
32237;BME280;18726;44.732;10.550;2023-05-19T09:27:30;101370.69;;;19.92;100.00
32237;BME280;18726;44.732;10.550;2023-05-19T09:30:36;101361.63;;;20.06;100.00
32237;BME280;18726;44.732;10.550;2023-05-19T09:33:41;101370.28;;;20.18;100.00
32237;BME280;18726;44.732;10.550;2023-05-19T09:36:46;101373.00;;;19.65;100.00
32237;BME280;18726;44.732;10.550;2023-05-19T09:39:52;101363.34;;;18.99;100.00
32237;BME280;18726;44.732;10.550;2023-05-19T09:42:55;101361.00;;;19.01;100.00
32237;BME280;18726;44.732;10.550;2023-05-19T09:46:07;101364.03;;;18.74;100.00
32237;BME280;18726;44.732;10.550;2023-05-19T09:49:11;101360.34;;;18.56;100.00
32237;BME280;18726;44.732;10.550;2023-05-19T09:52:15;101357.69;;;18.67;100.00
32237;BME280;18726;44.732;10.550;2023-05-19T09:55:18;101359.03;;;19.01;100.00
32237;BME280;18726;44.732;10.550;2023-05-19T09:58:25;101359.06;;;19.05;100.00
32237;BME280;18726;44.732;10.550;2023-05-19T10:01:30;101369.44;;;18.60;100.00
32237;BME280;18726;44.732;10.550;2023-05-19T10:04:35;101360.59;;;18.33;100.00
32237;BME280;18726;44.732;10.550;2023-05-19T10:07:39;101360.25;;;18.42;100.00
32237;BME280;18726;44.732;10.550;2023-05-19T10:10:45;101361.03;;;17.91;100.00
32237;BME280;18726;44.732;10.550;2023-05-19T10:13:50;101361.16;;;18.05;100.00
32237;BME280;18726;44.732;10.550;2023-05-19T10:16:56;101364.66;;;18.02;100.00
32237;BME280;18726;44.732;10.550;2023-05-19T10:20:00;101354.06;;;17.64;100.00
32237;BME280;18726;44.732;10.550;2023-05-19T10:23:04;101361.84;;;17.95;100.00
32237;BME280;18726;44.732;10.550;2023-05-19T10:26:08;101357.84;;;17.85;100.00
32237;BME280;18726;44.732;10.550;2023-05-19T10:29:16;101355.50;;;17.84;100.00
32237;BME280;18726;44.732;10.550;2023-05-19T10:32:24;101350.84;;;17.54;100.00
32237;BME280;18726;44.732;10.550;2023-05-19T10:35:52;101350.97;;;17.65;100.00
32237;BME280;18726;44.732;10.550;2023-05-19T10:39:15;101345.00;;;17.56;100.00
32237;BME280;18726;44.732;10.550;2023-05-19T10:45:45;101346.88;;;17.15;100.00
32237;BME280;18726;44.732;10.550;2023-05-19T10:48:50;101346.50;;;16.83;100.00
32237;BME280;18726;44.732;10.550;2023-05-19T10:51:54;101342.47;;;16.73;100.00
32237;BME280;18726;44.732;10.550;2023-05-19T10:55:01;101344.97;;;16.85;100.00
32237;BME280;18726;44.732;10.550;2023-05-19T10:58:05;101342.00;;;16.98;100.00
32237;BME280;18726;44.732;10.550;2023-05-19T11:01:17;101350.19;;;16.94;100.00
32237;BME280;18726;44.732;10.550;2023-05-19T11:04:47;101343.63;;;16.72;100.00
32237;BME280;18726;44.732;10.550;2023-05-19T11:07:55;101346.69;;;16.67;100.00
32237;BME280;18726;44.732;10.550;2023-05-19T11:11:14;101344.38;;;16.43;100.00
32237;BME280;18726;44.732;10.550;2023-05-19T11:14:22;101338.72;;;16.32;100.00
32237;BME280;18726;44.732;10.550;2023-05-19T11:17:29;101343.72;;;16.53;100.00
32237;BME280;18726;44.732;10.550;2023-05-19T11:20:37;101344.69;;;16.38;100.00
32237;BME280;18726;44.732;10.550;2023-05-19T11:23:41;101341.19;;;16.41;100.00
32237;BME280;18726;44.732;10.550;2023-05-19T11:26:45;101331.81;;;16.42;100.00
32237;BME280;18726;44.732;10.550;2023-05-19T11:29:50;101332.97;;;16.41;100.00
32237;BME280;18726;44.732;10.550;2023-05-19T11:32:54;101335.22;;;16.62;100.00
32237;BME280;18726;44.732;10.550;2023-05-19T11:35:58;101329.84;;;16.69;100.00
32237;BME280;18726;44.732;10.550;2023-05-19T11:39:03;101329.34;;;16.90;100.00
32237;BME280;18726;44.732;10.550;2023-05-19T11:42:10;101330.44;;;16.85;100.00
32237;BME280;18726;44.732;10.550;2023-05-19T11:45:14;101327.16;;;17.02;100.00
32237;BME280;18726;44.732;10.550;2023-05-19T11:48:21;101328.19;;;17.24;100.00
32237;BME280;18726;44.732;10.550;2023-05-19T11:51:25;101317.63;;;16.93;100.00
32237;BME280;18726;44.732;10.550;2023-05-19T11:54:32;101317.22;;;17.28;100.00
32237;BME280;18726;44.732;10.550;2023-05-19T11:57:38;101323.31;;;17.10;100.00
32237;BME280;18726;44.732;10.550;2023-05-19T12:00:43;101320.34;;;17.26;100.00
32237;BME280;18726;44.732;10.550;2023-05-19T12:03:48;101331.00;;;16.98;100.00
32237;BME280;18726;44.732;10.550;2023-05-19T12:06:52;101330.06;;;16.86;100.00
32237;BME280;18726;44.732;10.550;2023-05-19T12:09:58;101323.25;;;17.07;100.00
32237;BME280;18726;44.732;10.550;2023-05-19T12:13:04;101322.19;;;17.15;100.00
32237;BME280;18726;44.732;10.550;2023-05-19T12:16:08;101318.06;;;17.35;100.00
32237;BME280;18726;44.732;10.550;2023-05-19T12:19:12;101325.19;;;17.40;100.00
32237;BME280;18726;44.732;10.550;2023-05-19T12:22:16;101326.00;;;17.07;100.00
32237;BME280;18726;44.732;10.550;2023-05-19T12:25:21;101321.25;;;17.04;100.00
32237;BME280;18726;44.732;10.550;2023-05-19T12:28:28;101318.13;;;17.05;100.00
32237;BME280;18726;44.732;10.550;2023-05-19T12:31:33;101314.16;;;16.99;100.00
32237;BME280;18726;44.732;10.550;2023-05-19T12:34:38;101321.13;;;16.63;100.00
32237;BME280;18726;44.732;10.550;2023-05-19T12:37:41;101316.28;;;16.53;100.00
32237;BME280;18726;44.732;10.550;2023-05-19T12:40:45;101311.88;;;16.75;100.00
32237;BME280;18726;44.732;10.550;2023-05-19T12:43:49;101309.31;;;16.59;100.00
32237;BME280;18726;44.732;10.550;2023-05-19T12:46:56;101306.72;;;16.40;100.00
32237;BME280;18726;44.732;10.550;2023-05-19T12:50:08;101306.78;;;16.47;100.00
32237;BME280;18726;44.732;10.550;2023-05-19T12:53:12;101306.94;;;16.58;100.00
32237;BME280;18726;44.732;10.550;2023-05-19T12:56:16;101306.38;;;16.71;100.00
32237;BME280;18726;44.732;10.550;2023-05-19T12:59:22;101306.94;;;16.58;100.00
32237;BME280;18726;44.732;10.550;2023-05-19T13:02:25;101298.06;;;16.64;100.00
32237;BME280;18726;44.732;10.550;2023-05-19T13:05:34;101299.38;;;16.74;100.00
32237;BME280;18726;44.732;10.550;2023-05-19T13:08:40;101296.22;;;16.75;100.00
32237;BME280;18726;44.732;10.550;2023-05-19T13:11:47;101311.63;;;16.57;100.00
32237;BME280;18726;44.732;10.550;2023-05-19T13:14:53;101294.00;;;16.84;100.00
32237;BME280;18726;44.732;10.550;2023-05-19T13:17:56;101292.06;;;16.29;100.00
32237;BME280;18726;44.732;10.550;2023-05-19T13:21:00;101294.00;;;16.28;100.00
32237;BME280;18726;44.732;10.550;2023-05-19T13:24:04;101294.56;;;16.67;100.00
32237;BME280;18726;44.732;10.550;2023-05-19T13:27:08;101292.63;;;16.41;100.00
32237;BME280;18726;44.732;10.550;2023-05-19T13:30:11;101299.94;;;16.60;100.00
32237;BME280;18726;44.732;10.550;2023-05-19T13:33:15;101294.25;;;16.76;100.00
32237;BME280;18726;44.732;10.550;2023-05-19T13:36:19;101290.06;;;16.85;100.00
32237;BME280;18726;44.732;10.550;2023-05-19T13:39:23;101291.63;;;16.83;100.00
32237;BME280;18726;44.732;10.550;2023-05-19T13:42:26;101288.53;;;16.88;100.00
32237;BME280;18726;44.732;10.550;2023-05-19T13:45:30;101276.16;;;17.05;100.00
32237;BME280;18726;44.732;10.550;2023-05-19T13:48:34;101277.97;;;16.90;100.00
32237;BME280;18726;44.732;10.550;2023-05-19T13:51:41;101273.47;;;16.71;100.00
32237;BME280;18726;44.732;10.550;2023-05-19T13:54:46;101266.16;;;16.56;100.00
32237;BME280;18726;44.732;10.550;2023-05-19T13:57:50;101270.84;;;17.19;100.00
32237;BME280;18726;44.732;10.550;2023-05-19T14:00:54;101264.69;;;17.29;100.00
32237;BME280;18726;44.732;10.550;2023-05-19T14:03:58;101273.03;;;16.69;100.00
32237;BME280;18726;44.732;10.550;2023-05-19T14:07:02;101268.69;;;16.98;100.00
32237;BME280;18726;44.732;10.550;2023-05-19T14:10:06;101266.22;;;16.90;100.00
32237;BME280;18726;44.732;10.550;2023-05-19T14:13:10;101262.13;;;17.10;100.00
32237;BME280;18726;44.732;10.550;2023-05-19T14:16:15;101259.69;;;16.68;100.00
32237;BME280;18726;44.732;10.550;2023-05-19T14:19:19;101260.97;;;16.77;100.00
32237;BME280;18726;44.732;10.550;2023-05-19T14:22:22;101270.72;;;16.71;100.00
32237;BME280;18726;44.732;10.550;2023-05-19T14:25:26;101264.03;;;16.69;100.00
32237;BME280;18726;44.732;10.550;2023-05-19T14:28:30;101255.47;;;16.77;100.00
32237;BME280;18726;44.732;10.550;2023-05-19T14:31:37;101245.44;;;16.88;100.00
32237;BME280;18726;44.732;10.550;2023-05-19T14:34:47;101241.44;;;16.82;100.00
32237;BME280;18726;44.732;10.550;2023-05-19T14:37:55;101242.59;;;16.81;100.00
32237;BME280;18726;44.732;10.550;2023-05-19T14:40:59;101243.66;;;16.70;100.00
32237;BME280;18726;44.732;10.550;2023-05-19T14:44:04;101248.56;;;16.57;100.00
32237;BME280;18726;44.732;10.550;2023-05-19T14:47:08;101243.47;;;16.59;100.00
32237;BME280;18726;44.732;10.550;2023-05-19T14:50:13;101230.47;;;16.82;100.00
32237;BME280;18726;44.732;10.550;2023-05-19T14:53:17;101230.47;;;16.82;100.00
32237;BME280;18726;44.732;10.550;2023-05-19T14:56:20;101226.75;;;17.05;100.00
32237;BME280;18726;44.732;10.550;2023-05-19T14:59:27;101223.34;;;16.74;100.00
32237;BME280;18726;44.732;10.550;2023-05-19T15:02:32;101215.16;;;16.51;100.00
32237;BME280;18726;44.732;10.550;2023-05-19T15:05:36;101209.38;;;16.27;100.00
32237;BME280;18726;44.732;10.550;2023-05-19T15:08:42;101202.84;;;16.35;100.00
32237;BME280;18726;44.732;10.550;2023-05-19T15:11:49;101201.25;;;16.04;100.00
32237;BME280;18726;44.732;10.550;2023-05-19T15:14:52;101200.19;;;16.42;100.00
32237;BME280;18726;44.732;10.550;2023-05-19T15:17:55;101208.03;;;16.13;100.00
32237;BME280;18726;44.732;10.550;2023-05-19T15:20:59;101212.44;;;16.21;100.00
32237;BME280;18726;44.732;10.550;2023-05-19T15:24:03;101204.75;;;16.31;100.00
32237;BME280;18726;44.732;10.550;2023-05-19T15:27:07;101204.47;;;16.39;100.00
32237;BME280;18726;44.732;10.550;2023-05-19T15:30:11;101202.50;;;16.40;100.00
32237;BME280;18726;44.732;10.550;2023-05-19T15:33:15;101202.13;;;16.71;100.00
32237;BME280;18726;44.732;10.550;2023-05-19T15:36:18;101193.19;;;16.48;100.00
32237;BME280;18726;44.732;10.550;2023-05-19T15:39:22;101195.69;;;16.60;100.00
32237;BME280;18726;44.732;10.550;2023-05-19T15:42:26;101203.47;;;16.54;100.00
32237;BME280;18726;44.732;10.550;2023-05-19T15:45:30;101206.41;;;16.69;100.00
32237;BME280;18726;44.732;10.550;2023-05-19T15:48:34;101206.44;;;16.72;100.00
32237;BME280;18726;44.732;10.550;2023-05-19T15:51:38;101211.03;;;16.98;100.00
32237;BME280;18726;44.732;10.550;2023-05-19T15:54:45;101204.75;;;16.98;100.00
32237;BME280;18726;44.732;10.550;2023-05-19T15:57:50;101194.69;;;16.75;100.00
32237;BME280;18726;44.732;10.550;2023-05-19T16:00:55;101189.47;;;16.63;100.00
32237;BME280;18726;44.732;10.550;2023-05-19T16:04:03;101175.78;;;16.33;100.00
32237;BME280;18726;44.732;10.550;2023-05-19T16:07:07;101171.34;;;16.55;100.00